createdAt,value
2019-02-25T00:01:10.918Z,14.37
2019-02-25T00:03:40.690Z,14.50
2019-02-25T00:06:10.439Z,14.10
2019-02-25T00:08:40.235Z,14.43
2019-02-25T00:11:10.041Z,13.90
2019-02-25T00:13:39.812Z,14.13
2019-02-25T00:16:09.878Z,14.27
2019-02-25T00:18:39.626Z,14.90
2019-02-25T00:21:09.411Z,14.50
2019-02-25T00:23:39.187Z,14.17
2019-02-25T00:26:08.976Z,14.07
2019-02-25T00:28:38.767Z,14.33
2019-02-25T00:31:08.349Z,14.80
2019-02-25T00:33:38.199Z,14.23
2019-02-25T00:36:07.958Z,15.00
2019-02-25T00:38:37.738Z,14.03
2019-02-25T00:41:07.389Z,14.70
2019-02-25T00:43:37.121Z,14.60
2019-02-25T00:46:07.181Z,14.90
2019-02-25T00:48:36.969Z,15.43
2019-02-25T00:51:06.736Z,15.20
2019-02-25T00:53:36.516Z,14.90
2019-02-25T00:56:06.347Z,15.03
2019-02-25T00:58:36.158Z,14.67
2019-02-25T01:01:05.996Z,14.43
2019-02-25T01:03:35.992Z,14.03
2019-02-25T01:06:05.723Z,14.97
2019-02-25T01:08:35.534Z,14.30
2019-02-25T01:11:05.365Z,14.43
2019-02-25T01:13:35.166Z,14.20
2019-02-25T01:16:05.324Z,14.40
2019-02-25T01:18:35.150Z,13.63
2019-02-25T01:21:04.973Z,14.20
2019-02-25T01:23:34.802Z,14.53
2019-02-25T01:26:04.498Z,14.83
2019-02-25T01:28:34.291Z,13.17
2019-02-25T01:31:04.070Z,13.80
2019-02-25T01:33:33.835Z,13.40
2019-02-25T01:36:03.634Z,13.70
2019-02-25T01:38:33.452Z,14.77
2019-02-25T01:41:03.279Z,14.47
2019-02-25T01:43:33.078Z,14.63
2019-02-25T01:46:02.918Z,15.27
2019-02-25T01:48:32.727Z,14.37
2019-02-25T01:51:02.638Z,15.63
2019-02-25T01:53:32.686Z,14.63
2019-02-25T01:56:02.515Z,13.87
2019-02-25T01:58:32.255Z,14.87
2019-02-25T02:01:02.013Z,14.33
2019-02-25T02:03:31.771Z,13.47
2019-02-25T02:06:01.594Z,14.23
2019-02-25T02:08:31.386Z,14.80
2019-02-25T02:11:01.243Z,14.87
2019-02-25T02:13:31.451Z,14.70
2019-02-25T02:16:01.253Z,14.10
2019-02-25T02:18:31.047Z,13.50
2019-02-25T02:21:00.792Z,15.20
2019-02-25T02:23:30.470Z,14.23
2019-02-25T02:26:00.375Z,13.77
2019-02-25T02:28:31.146Z,14.60
2019-02-25T02:31:00.941Z,14.10
2019-02-25T02:33:30.691Z,14.67
2019-02-25T02:36:00.494Z,13.63
2019-02-25T02:38:30.275Z,13.07
2019-02-25T02:41:00.066Z,13.27
2019-02-25T02:43:29.945Z,13.67
2019-02-25T02:46:02.788Z,14.13
2019-02-25T02:48:44.556Z,13.60
2019-02-25T02:51:14.757Z,14.07
2019-02-25T02:53:44.470Z,14.17
2019-02-25T02:56:14.240Z,13.67
2019-02-25T02:58:44.035Z,13.67
2019-02-25T03:01:13.831Z,13.53
2019-02-25T03:03:43.552Z,13.37
2019-02-25T03:06:13.341Z,13.20
2019-02-25T03:08:43.134Z,14.63
2019-02-25T03:11:12.915Z,13.03
2019-02-25T03:13:42.700Z,13.83
2019-02-25T03:16:12.442Z,13.30
2019-02-25T03:18:42.121Z,13.17
2019-02-25T03:21:11.819Z,12.77
2019-02-25T03:23:41.635Z,13.40
2019-02-25T03:26:11.338Z,13.07
2019-02-25T03:28:41.395Z,21.10
2019-02-25T03:31:11.322Z,25.93
2019-02-25T03:33:41.976Z,19.90
2019-02-25T03:36:11.603Z,21.70
2019-02-25T03:38:41.489Z,19.77
2019-02-25T03:41:11.283Z,18.40
2019-02-25T03:43:41.786Z,18.33
2019-02-25T03:46:11.594Z,18.17
2019-02-25T03:48:41.395Z,14.97
2019-02-25T03:51:11.245Z,13.87
2019-02-25T03:53:40.943Z,19.93
2019-02-25T03:56:10.612Z,18.10
2019-02-25T03:58:40.499Z,19.53
2019-02-25T04:01:10.897Z,15.67
2019-02-25T04:03:40.687Z,16.67
2019-02-25T04:06:10.381Z,16.73
2019-02-25T04:08:40.177Z,17.53
2019-02-25T04:11:10.523Z,15.67
2019-02-25T04:13:40.356Z,14.13
2019-02-25T04:16:10.135Z,13.93
2019-02-25T04:18:39.916Z,12.73
2019-02-25T04:21:09.686Z,13.33
2019-02-25T04:23:39.474Z,14.30
2019-02-25T04:26:09.272Z,13.93
2019-02-25T04:28:39.089Z,14.63
2019-02-25T04:31:08.914Z,14.27
2019-02-25T04:33:39.699Z,13.47
2019-02-25T04:36:09.505Z,13.40
2019-02-25T04:38:40.128Z,13.63
2019-02-25T04:41:09.918Z,14.10
2019-02-25T04:43:39.803Z,14.10
2019-02-25T04:46:11.128Z,15.07
2019-02-25T04:48:40.941Z,13.87
2019-02-25T04:51:10.702Z,14.33
2019-02-25T04:53:40.515Z,13.77
2019-02-25T04:56:10.663Z,13.97
2019-02-25T04:58:40.446Z,13.57
2019-02-25T05:01:10.109Z,13.63
2019-02-25T05:03:39.905Z,13.10
2019-02-25T05:06:09.725Z,13.27
2019-02-25T05:08:39.518Z,13.67
2019-02-25T05:11:09.247Z,13.47
2019-02-25T05:13:38.985Z,13.90
2019-02-25T05:16:08.777Z,29.17
2019-02-25T05:18:38.523Z,18.27
2019-02-25T05:21:08.343Z,13.53
2019-02-25T05:23:41.277Z,13.30
2019-02-25T05:26:11.059Z,13.00
2019-02-25T05:28:40.812Z,13.90
2019-02-25T05:31:10.600Z,12.93
2019-02-25T05:33:40.498Z,14.43
2019-02-25T05:36:10.326Z,13.93
2019-02-25T05:38:40.170Z,13.40
2019-02-25T05:41:10.086Z,14.00
2019-02-25T05:43:39.878Z,13.50
2019-02-25T05:46:09.637Z,12.57
2019-02-25T05:48:39.323Z,13.57
2019-02-25T05:51:09.110Z,13.73
2019-02-25T05:53:38.886Z,13.47
2019-02-25T05:56:10.206Z,13.50
2019-02-25T05:58:39.946Z,14.00
2019-02-25T06:01:09.742Z,13.77
2019-02-25T06:03:39.518Z,13.23
2019-02-25T06:06:09.347Z,14.27
2019-02-25T06:08:39.153Z,33.23
2019-02-25T06:11:08.938Z,27.97
2019-02-25T06:13:38.878Z,25.57
2019-02-25T06:16:08.566Z,20.37
2019-02-25T06:18:38.370Z,18.53
2019-02-25T06:21:08.154Z,17.03
2019-02-25T06:23:38.006Z,16.90
2019-02-25T06:26:07.741Z,17.43
2019-02-25T06:28:37.517Z,16.83
2019-02-25T06:31:09.736Z,16.73
2019-02-25T06:33:39.695Z,17.10
2019-02-25T06:36:09.511Z,18.37
2019-02-25T06:38:39.287Z,17.13
2019-02-25T06:41:09.065Z,17.20
2019-02-25T06:43:38.662Z,15.60
2019-02-25T06:46:08.479Z,15.30
2019-02-25T06:48:38.317Z,16.13
2019-02-25T06:51:08.164Z,27.07
2019-02-25T06:53:40.957Z,26.30
2019-02-25T06:56:12.395Z,17.47
2019-02-25T06:58:42.497Z,16.90
2019-02-25T07:01:12.780Z,16.57
2019-02-25T07:03:43.648Z,16.60
2019-02-25T07:06:27.515Z,16.10
2019-02-25T07:08:58.905Z,14.20
2019-02-25T07:11:30.284Z,15.00
2019-02-25T07:14:04.698Z,14.23
2019-02-25T07:16:52.540Z,14.20
2019-02-25T07:19:23.865Z,14.27
2019-02-25T07:21:55.186Z,13.73
2019-02-25T07:24:32.214Z,14.63
2019-02-25T07:27:03.545Z,14.90
2019-02-25T07:29:34.925Z,13.63
2019-02-25T07:32:18.567Z,14.70
2019-02-25T07:34:49.948Z,13.33
2019-02-25T07:37:29.045Z,13.57
2019-02-25T07:40:28.856Z,14.33
2019-02-25T07:43:09.361Z,12.93
2019-02-25T07:45:52.972Z,12.27
2019-02-25T07:48:26.991Z,11.03
2019-02-25T07:51:04.443Z,10.50
2019-02-25T07:53:55.059Z,28.17
2019-02-25T07:56:35.478Z,13.23
2019-02-25T07:59:09.678Z,13.40
2019-02-25T08:01:45.005Z,13.03
2019-02-25T08:04:19.227Z,12.53
2019-02-25T08:06:50.699Z,13.40
2019-02-25T08:09:31.231Z,12.50
2019-02-25T08:12:05.285Z,12.40
2019-02-25T08:14:43.826Z,11.87
2019-02-25T08:17:24.067Z,10.87
2019-02-25T08:19:55.478Z,10.87
2019-02-25T08:22:42.068Z,10.30
2019-02-25T08:25:16.152Z,10.17
2019-02-25T08:28:04.615Z,10.70
2019-02-25T08:30:35.976Z,9.77
2019-02-25T08:33:07.494Z,9.47
2019-02-25T08:36:05.940Z,9.97
2019-02-25T08:38:38.516Z,9.90
2019-02-25T08:41:12.798Z,10.63
2019-02-25T08:43:47.045Z,10.00
2019-02-25T08:46:21.213Z,15.57
2019-02-25T08:48:52.694Z,16.37
2019-02-25T08:51:22.433Z,10.87
2019-02-25T08:53:52.202Z,10.97
2019-02-25T08:56:22.004Z,10.23
2019-02-25T08:58:51.820Z,11.20
2019-02-25T09:01:21.701Z,11.33
2019-02-25T09:03:51.428Z,11.07
2019-02-25T09:06:21.259Z,11.03
2019-02-25T09:08:51.037Z,12.03
2019-02-25T09:11:20.829Z,12.23
2019-02-25T09:13:50.653Z,12.33
2019-02-25T09:16:20.552Z,13.10
2019-02-25T09:18:50.347Z,11.50
2019-02-25T09:21:20.022Z,12.40
2019-02-25T09:23:52.339Z,11.43
2019-02-25T09:26:25.185Z,12.43
2019-02-25T09:28:57.423Z,11.60
2019-02-25T09:31:29.625Z,11.03
2019-02-25T09:33:59.400Z,12.90
2019-02-25T09:36:32.247Z,14.43
2019-02-25T09:39:02.623Z,13.00
2019-02-25T09:41:33.297Z,13.50
2019-02-25T09:44:03.144Z,13.70
2019-02-25T09:46:32.933Z,13.83
2019-02-25T09:49:03.078Z,32.43
2019-02-25T09:51:33.778Z,24.80
2019-02-25T09:54:05.590Z,11.27
2019-02-25T09:56:37.332Z,9.83
2019-02-25T09:59:06.971Z,10.50
2019-02-25T10:01:38.849Z,9.97
2019-02-25T10:04:09.626Z,9.80
2019-02-25T10:06:39.335Z,10.10
2019-02-25T10:09:09.995Z,10.40
2019-02-25T10:11:40.075Z,16.60
2019-02-25T10:14:09.892Z,10.47
2019-02-25T10:16:39.730Z,10.13
2019-02-25T10:19:09.900Z,10.73
2019-02-25T10:21:39.589Z,9.83
2019-02-25T10:24:09.399Z,9.73
2019-02-25T10:26:40.791Z,9.30
2019-02-25T10:29:10.967Z,9.30
2019-02-25T10:31:43.810Z,8.33
2019-02-25T10:34:13.844Z,9.73
2019-02-25T10:36:44.525Z,10.23
2019-02-25T10:39:17.755Z,8.50
2019-02-25T10:41:47.523Z,10.60
2019-02-25T10:44:17.931Z,9.30
2019-02-25T10:46:49.090Z,6.40
2019-02-25T10:49:19.497Z,6.77
2019-02-25T10:51:49.311Z,5.97
2019-02-25T10:54:21.661Z,21.13
2019-02-25T10:56:54.212Z,11.23
2019-02-25T10:59:23.827Z,4.80
2019-02-25T11:01:53.638Z,5.20
2019-02-25T11:04:23.907Z,5.97
2019-02-25T11:06:54.962Z,6.73
2019-02-25T11:09:35.438Z,6.97
2019-02-25T11:12:05.386Z,7.10
2019-02-25T11:14:36.509Z,7.50
2019-02-25T11:17:07.058Z,5.80
2019-02-25T11:19:38.434Z,5.90
2019-02-25T11:22:09.967Z,5.73
2019-02-25T11:24:39.779Z,5.17
2019-02-25T11:27:09.534Z,5.20
2019-02-25T11:29:40.500Z,5.37
2019-02-25T11:32:11.556Z,5.37
2019-02-25T11:34:41.379Z,6.20
2019-02-25T11:37:11.179Z,5.80
2019-02-25T11:39:41.031Z,6.40
2019-02-25T11:42:13.531Z,6.23
2019-02-25T11:44:43.147Z,6.93
2019-02-25T11:47:12.960Z,27.90
2019-02-25T11:49:42.739Z,22.07
2019-02-25T11:52:12.661Z,5.97
2019-02-25T11:54:44.146Z,5.53
2019-02-25T11:57:14.056Z,4.27
2019-02-25T11:59:44.165Z,20.17
2019-02-25T12:02:13.994Z,5.30
2019-02-25T12:04:43.894Z,5.17
2019-02-25T12:07:17.027Z,4.87
2019-02-25T12:09:48.678Z,5.70
2019-02-25T12:12:20.560Z,5.17
2019-02-25T12:14:50.378Z,4.70
2019-02-25T12:17:23.234Z,5.00
2019-02-25T12:19:54.566Z,4.37
2019-02-25T12:22:24.741Z,4.17
2019-02-25T12:24:54.965Z,4.43
2019-02-25T12:27:26.480Z,6.83
2019-02-25T12:30:01.428Z,4.07
2019-02-25T12:32:31.253Z,3.90
2019-02-25T12:35:02.204Z,10.27
2019-02-25T12:37:31.981Z,38.37
2019-02-25T12:40:04.240Z,6.10
2019-02-25T12:42:34.013Z,4.80
2019-02-25T12:45:04.507Z,4.87
2019-02-25T12:47:35.095Z,4.77
2019-02-25T12:50:07.755Z,4.80
2019-02-25T12:52:37.725Z,4.80
2019-02-25T12:55:10.374Z,17.10
2019-02-25T12:57:43.190Z,6.70
2019-02-25T13:00:17.298Z,5.50
2019-02-25T13:02:46.946Z,6.67
2019-02-25T13:05:24.179Z,5.43
2019-02-25T13:07:54.146Z,5.70
2019-02-25T13:10:24.224Z,26.67
2019-02-25T13:12:53.961Z,8.37
2019-02-25T13:15:25.641Z,5.67
2019-02-25T13:17:55.348Z,5.43
2019-02-25T13:20:24.944Z,5.90
2019-02-25T13:22:55.698Z,6.40
2019-02-25T13:25:33.235Z,5.47
2019-02-25T13:28:04.259Z,5.80
2019-02-25T13:30:35.231Z,5.93
2019-02-25T13:33:05.052Z,5.87
2019-02-25T13:35:35.494Z,6.33
2019-02-25T13:38:05.297Z,5.50
2019-02-25T13:40:35.300Z,6.40
2019-02-25T13:43:06.674Z,6.63
2019-02-25T13:45:36.466Z,5.83
2019-02-25T13:48:08.092Z,5.83
2019-02-25T13:50:38.588Z,6.13
2019-02-25T13:53:08.418Z,5.63
2019-02-25T13:55:38.108Z,5.00
2019-02-25T13:58:07.983Z,5.73
2019-02-25T14:00:37.803Z,5.33
2019-02-25T14:03:07.836Z,5.83
2019-02-25T14:05:37.705Z,5.33
2019-02-25T14:08:07.428Z,5.50
2019-02-25T14:10:37.767Z,5.50
2019-02-25T14:13:07.704Z,5.83
2019-02-25T14:15:37.507Z,18.07
2019-02-25T14:18:07.315Z,8.27
2019-02-25T14:20:37.206Z,5.90
2019-02-25T14:23:07.062Z,6.03
2019-02-25T14:25:38.385Z,5.80
2019-02-25T14:28:08.833Z,5.97
2019-02-25T14:30:38.635Z,6.50
2019-02-25T14:33:12.778Z,6.20
2019-02-25T14:35:41.656Z,6.27
2019-02-25T14:38:17.346Z,6.30
2019-02-25T14:40:46.652Z,6.73
2019-02-25T14:43:17.687Z,6.77
2019-02-25T14:45:53.107Z,6.20
2019-02-25T14:48:21.057Z,6.63
2019-02-25T14:50:51.502Z,6.17
2019-02-25T14:53:24.530Z,6.83
2019-02-25T14:55:56.009Z,6.83
2019-02-25T14:58:31.348Z,6.83
2019-02-25T15:00:59.862Z,7.27
2019-02-25T15:03:29.623Z,7.50
2019-02-25T15:05:59.523Z,7.33
2019-02-25T15:08:30.647Z,7.60
2019-02-25T15:11:02.889Z,7.13
2019-02-25T15:13:34.993Z,7.10
2019-02-25T15:16:05.236Z,6.90
2019-02-25T15:18:35.058Z,6.83
2019-02-25T15:21:06.812Z,6.30
2019-02-25T15:23:37.406Z,6.67
2019-02-25T15:26:07.212Z,6.33
2019-02-25T15:28:39.534Z,6.33
2019-02-25T15:31:11.348Z,6.90
2019-02-25T15:33:42.477Z,16.90
2019-02-25T15:36:13.546Z,36.73
2019-02-25T15:38:43.983Z,7.33
2019-02-25T15:41:14.966Z,6.43
2019-02-25T15:43:44.841Z,5.37
2019-02-25T15:46:16.649Z,6.10
2019-02-25T15:48:46.341Z,6.17
2019-02-25T15:51:18.324Z,9.83
2019-02-25T15:53:48.995Z,15.90
2019-02-25T15:56:19.318Z,8.03
2019-02-25T15:58:49.314Z,6.50
2019-02-25T16:01:19.090Z,5.70
2019-02-25T16:03:49.350Z,6.70
2019-02-25T16:06:19.447Z,6.63
2019-02-25T16:08:51.885Z,6.33
2019-02-25T16:11:25.681Z,6.50
2019-02-25T16:14:00.086Z,6.90
2019-02-25T16:16:29.738Z,6.37
2019-02-25T16:18:59.564Z,6.53
2019-02-25T16:21:31.752Z,7.47
2019-02-25T16:24:04.151Z,7.57
2019-02-25T16:26:34.284Z,6.73
2019-02-25T16:29:06.622Z,8.20
2019-02-25T16:31:37.658Z,8.30
2019-02-25T16:34:07.610Z,8.00
2019-02-25T16:36:37.463Z,7.77
2019-02-25T16:39:10.005Z,7.40
2019-02-25T16:41:41.802Z,7.13
2019-02-25T16:44:11.635Z,7.30
2019-02-25T16:46:43.550Z,7.77
2019-02-25T16:49:13.219Z,13.97
2019-02-25T16:51:43.020Z,10.40
2019-02-25T16:54:13.574Z,8.87
2019-02-25T16:56:44.710Z,8.40
2019-02-25T16:59:15.778Z,7.90
2019-02-25T17:01:46.251Z,7.80
2019-02-25T17:04:19.804Z,6.87
2019-02-25T17:06:49.149Z,7.63
2019-02-25T17:09:20.413Z,7.90
2019-02-25T17:11:50.640Z,8.13
2019-02-25T17:14:21.666Z,7.83
2019-02-25T17:16:52.023Z,8.23
2019-02-25T17:19:22.532Z,7.70
2019-02-25T17:21:52.503Z,14.50
2019-02-25T17:24:24.070Z,8.60
2019-02-25T17:26:53.891Z,9.30
2019-02-25T17:29:24.669Z,8.90
2019-02-25T17:31:56.922Z,7.80
2019-02-25T17:34:26.679Z,7.67
2019-02-25T17:36:56.885Z,18.00
2019-02-25T17:39:26.671Z,21.00
2019-02-25T17:41:57.674Z,11.63
2019-02-25T17:44:30.021Z,8.10
2019-02-25T17:47:01.930Z,29.43
2019-02-25T17:49:32.320Z,11.33
2019-02-25T17:52:06.187Z,8.03
2019-02-25T17:54:37.653Z,8.83
2019-02-25T17:57:08.055Z,8.30
2019-02-25T17:59:39.250Z,9.57
2019-02-25T18:02:10.493Z,8.30
2019-02-25T18:04:40.885Z,8.40
2019-02-25T18:07:10.786Z,10.50
2019-02-25T18:09:42.241Z,10.97
2019-02-25T18:12:12.090Z,13.07
2019-02-25T18:14:43.183Z,15.27
2019-02-25T18:17:16.667Z,14.87
2019-02-25T18:19:45.694Z,11.07
2019-02-25T18:22:17.527Z,12.13
2019-02-25T18:24:47.505Z,12.13
2019-02-25T18:27:17.477Z,10.10
2019-02-25T18:29:48.156Z,11.97
2019-02-25T18:32:18.889Z,11.80
2019-02-25T18:34:49.939Z,11.57
2019-02-25T18:37:20.391Z,8.80
2019-02-25T18:39:52.234Z,11.37
2019-02-25T18:42:22.839Z,10.93
2019-02-25T18:44:53.542Z,11.83
2019-02-25T18:47:25.595Z,54.67
2019-02-25T18:49:56.664Z,19.20
2019-02-25T18:52:29.230Z,10.70
2019-02-25T18:55:02.002Z,11.97
2019-02-25T18:57:31.379Z,12.77
2019-02-25T19:00:05.769Z,11.47
2019-02-25T19:02:37.709Z,10.87
2019-02-25T19:05:10.648Z,13.07
2019-02-25T19:07:40.646Z,13.13
2019-02-25T19:10:12.449Z,13.37
2019-02-25T19:12:43.859Z,11.43
2019-02-25T19:15:14.225Z,10.83
2019-02-25T19:17:45.757Z,22.40
2019-02-25T19:20:16.820Z,13.90
2019-02-25T19:22:46.663Z,12.63
2019-02-25T19:25:20.031Z,12.03
2019-02-25T19:27:50.142Z,13.63
2019-02-25T19:30:22.244Z,13.57
2019-02-25T19:32:52.714Z,13.53
2019-02-25T19:35:27.788Z,17.40
2019-02-25T19:37:56.886Z,16.13
2019-02-25T19:40:27.943Z,15.43
2019-02-25T19:42:59.532Z,15.67
2019-02-25T19:45:30.520Z,16.13
2019-02-25T19:48:02.264Z,15.70
2019-02-25T19:50:34.165Z,14.97
2019-02-25T19:53:05.239Z,14.13
2019-02-25T19:55:36.159Z,17.03
2019-02-25T19:58:08.465Z,16.67
2019-02-25T20:00:39.304Z,19.17
2019-02-25T20:03:09.291Z,68.47
2019-02-25T20:05:43.364Z,19.37
2019-02-25T20:08:12.947Z,21.90
2019-02-25T20:10:45.420Z,18.73
2019-02-25T20:13:17.274Z,19.23
2019-02-25T20:15:49.098Z,52.67
2019-02-25T20:18:20.692Z,35.70
2019-02-25T20:20:50.809Z,29.17
2019-02-25T20:23:22.271Z,38.07
2019-02-25T20:25:53.511Z,42.40
2019-02-25T20:28:25.064Z,50.00
2019-02-25T20:30:56.339Z,53.07
2019-02-25T20:33:30.411Z,26.23
2019-02-25T20:35:58.931Z,53.43
2019-02-25T20:38:30.086Z,49.07
2019-02-25T20:41:02.534Z,33.20
2019-02-25T20:43:32.633Z,22.67
2019-02-25T20:46:04.039Z,19.73
2019-02-25T20:48:34.506Z,18.97
2019-02-25T20:51:06.733Z,19.93
2019-02-25T20:53:37.695Z,18.73
2019-02-25T20:56:07.574Z,18.33
2019-02-25T20:58:38.317Z,19.50
2019-02-25T21:01:09.850Z,19.97
2019-02-25T21:03:43.900Z,18.57
2019-02-25T21:06:14.514Z,19.00
2019-02-25T21:08:46.569Z,17.87
2019-02-25T21:11:16.072Z,20.70
2019-02-25T21:13:46.978Z,19.50
2019-02-25T21:16:17.071Z,32.97
2019-02-25T21:18:48.688Z,28.40
2019-02-25T21:21:18.472Z,38.97
2019-02-25T21:23:48.314Z,50.43
2019-02-25T21:26:18.104Z,20.43
2019-02-25T21:28:47.893Z,16.23
2019-02-25T21:31:19.557Z,15.23
2019-02-25T21:33:50.066Z,18.57
2019-02-25T21:36:20.802Z,15.40
2019-02-25T21:38:51.616Z,12.77
2019-02-25T21:41:22.805Z,19.43
2019-02-25T21:43:54.064Z,19.57
2019-02-25T21:46:26.047Z,18.30
2019-02-25T21:48:57.550Z,19.17
2019-02-25T21:51:28.092Z,20.83
2019-02-25T21:53:59.942Z,19.77
2019-02-25T21:56:30.197Z,18.90
2019-02-25T21:59:01.499Z,33.40
2019-02-25T22:01:32.309Z,22.10
2019-02-25T22:04:02.883Z,20.90
2019-02-25T22:06:33.222Z,55.03
2019-02-25T22:09:05.057Z,59.90
2019-02-25T22:11:34.866Z,26.03
2019-02-25T22:14:04.601Z,38.87
2019-02-25T22:16:43.662Z,42.17
2019-02-25T22:19:05.885Z,24.57
2019-02-25T22:21:35.668Z,18.73
2019-02-25T22:24:07.425Z,16.33
2019-02-25T22:26:37.668Z,17.03
2019-02-25T22:29:07.524Z,14.60
2019-02-25T22:31:39.420Z,12.67
2019-02-25T22:34:12.635Z,11.87
2019-02-25T22:36:43.783Z,15.53
2019-02-25T22:39:12.747Z,11.77
2019-02-25T22:41:44.442Z,14.17
2019-02-25T22:44:14.054Z,15.23
2019-02-25T22:46:43.872Z,13.60
2019-02-25T22:49:13.702Z,12.37
2019-02-25T22:51:45.127Z,12.20
2019-02-25T22:54:17.038Z,13.53
2019-02-25T22:56:46.426Z,16.30
2019-02-25T22:59:20.045Z,14.07
2019-02-25T23:01:47.713Z,13.80
2019-02-25T23:04:19.565Z,15.57
2019-02-25T23:06:51.259Z,13.70
2019-02-25T23:09:21.313Z,13.03
2019-02-25T23:11:53.137Z,13.77
2019-02-25T23:14:23.439Z,13.13
2019-02-25T23:16:53.283Z,12.77
2019-02-25T23:19:23.179Z,13.43
2019-02-25T23:21:52.973Z,12.83
2019-02-25T23:24:26.011Z,13.33
2019-02-25T23:26:55.249Z,16.60
2019-02-25T23:29:28.422Z,14.07
2019-02-25T23:32:01.776Z,12.77
2019-02-25T23:34:28.820Z,13.07
2019-02-25T23:36:59.476Z,11.43
2019-02-25T23:39:32.034Z,12.40
2019-02-25T23:42:04.691Z,13.07
2019-02-25T23:44:32.135Z,12.80
2019-02-25T23:47:03.945Z,12.77
2019-02-25T23:49:33.972Z,12.43
2019-02-25T23:52:04.948Z,12.57
2019-02-25T23:54:34.873Z,12.87
2019-02-25T23:57:04.655Z,12.67
2019-02-25T23:59:34.472Z,13.17
